Tulpan, Russia
Current Conditions -  °F | °C
As of 1:00 PM on Friday 19 Dec 2014 (Local Time) from UUYY Reporting Station
Overcast Overcast  
Wind Chill: 24°   Ceiling: 2600
Heat Index: 30°   Visibility: 6mi
Dew Point: 25°   Wind: 7mph
Humidity: 80%   Direction: 220°SW
Pressure: 29.65"   Gusts: NA
Location:  61.37°N, 57.42°E
Report Text: UUYY 190800Z 22003MPS 9000 BKN026CB OVC066 M01/M04 Q1004 NOSIG19590539 RMK QFE744/0992
Loading
Personal Weather Stations






























Interactive Weather Map New forecast layout! Learn more

10-Day Weather Forecast

Advertisements
Track Severe Weather on mobile